sensor_id;sensor_type;location;lat;lon;timestamp;P1;P2;P0
74333;PMS5003;62753;40.394;-80.022;2023-09-19T00:01:00;12;12;
74333;PMS5003;62753;40.394;-80.022;2023-09-19T00:03:25;12;11;
74333;PMS5003;62753;40.394;-80.022;2023-09-19T00:05:50;9;8;
74333;PMS5003;62753;40.394;-80.022;2023-09-19T00:08:15;13;13;
74333;PMS5003;62753;40.394;-80.022;2023-09-19T00:10:42;13;11;
74333;PMS5003;62753;40.394;-80.022;2023-09-19T00:13:07;16;13;
74333;PMS5003;62753;40.394;-80.022;2023-09-19T00:15:36;12;11;
74333;PMS5003;62753;40.394;-80.022;2023-09-19T00:17:57;16;16;
74333;PMS5003;62753;40.394;-80.022;2023-09-19T00:20:22;11;11;
74333;PMS5003;62753;40.394;-80.022;2023-09-19T00:22:48;15;15;
74333;PMS5003;62753;40.394;-80.022;2023-09-19T00:25:14;13;13;
74333;PMS5003;62753;40.394;-80.022;2023-09-19T00:27:39;15;14;
74333;PMS5003;62753;40.394;-80.022;2023-09-19T00:30:05;16;13;
74333;PMS5003;62753;40.394;-80.022;2023-09-19T00:32:30;12;11;
74333;PMS5003;62753;40.394;-80.022;2023-09-19T00:34:55;15;14;
74333;PMS5003;62753;40.394;-80.022;2023-09-19T00:37:20;12;12;
74333;PMS5003;62753;40.394;-80.022;2023-09-19T00:39:45;13;13;
74333;PMS5003;62753;40.394;-80.022;2023-09-19T00:44:36;12;12;
74333;PMS5003;62753;40.394;-80.022;2023-09-19T00:47:02;11;10;
74333;PMS5003;62753;40.394;-80.022;2023-09-19T00:49:27;10;9;
74333;PMS5003;62753;40.394;-80.022;2023-09-19T00:51:52;13;12;
74333;PMS5003;62753;40.394;-80.022;2023-09-19T00:54:17;11;11;
74333;PMS5003;62753;40.394;-80.022;2023-09-19T00:56:43;15;12;
74333;PMS5003;62753;40.394;-80.022;2023-09-19T00:59:08;11;10;
74333;PMS5003;62753;40.394;-80.022;2023-09-19T01:01:33;13;12;
74333;PMS5003;62753;40.394;-80.022;2023-09-19T01:03:58;11;11;
74333;PMS5003;62753;40.394;-80.022;2023-09-19T01:06:25;13;12;
74333;PMS5003;62753;40.394;-80.022;2023-09-19T01:08:49;14;11;
74333;PMS5003;62753;40.394;-80.022;2023-09-19T01:11:17;15;10;
74333;PMS5003;62753;40.394;-80.022;2023-09-19T01:13:46;10;9;
74333;PMS5003;62753;40.394;-80.022;2023-09-19T01:16:07;11;11;
74333;PMS5003;62753;40.394;-80.022;2023-09-19T01:18:34;13;12;
74333;PMS5003;62753;40.394;-80.022;2023-09-19T01:21:00;10;10;
74333;PMS5003;62753;40.394;-80.022;2023-09-19T01:23:23;8;8;
74333;PMS5003;62753;40.394;-80.022;2023-09-19T01:30:39;11;10;
74333;PMS5003;62753;40.394;-80.022;2023-09-19T01:33:04;12;11;
74333;PMS5003;62753;40.394;-80.022;2023-09-19T01:35:29;10;10;
74333;PMS5003;62753;40.394;-80.022;2023-09-19T01:37:54;11;10;
74333;PMS5003;62753;40.394;-80.022;2023-09-19T01:40:20;12;11;
74333;PMS5003;62753;40.394;-80.022;2023-09-19T01:42:48;9;9;
74333;PMS5003;62753;40.394;-80.022;2023-09-19T01:45:12;10;9;
74333;PMS5003;62753;40.394;-80.022;2023-09-19T01:47:37;12;10;
74333;PMS5003;62753;40.394;-80.022;2023-09-19T01:50:04;10;9;
74333;PMS5003;62753;40.394;-80.022;2023-09-19T01:52:27;13;12;
74333;PMS5003;62753;40.394;-80.022;2023-09-19T01:54:52;11;8;
74333;PMS5003;62753;40.394;-80.022;2023-09-19T01:57:25;11;11;
74333;PMS5003;62753;40.394;-80.022;2023-09-19T01:59:45;10;9;
74333;PMS5003;62753;40.394;-80.022;2023-09-19T02:02:08;11;11;
74333;PMS5003;62753;40.394;-80.022;2023-09-19T02:04:33;9;8;
74333;PMS5003;62753;40.394;-80.022;2023-09-19T02:06:58;13;11;
74333;PMS5003;62753;40.394;-80.022;2023-09-19T02:09:24;9;9;
74333;PMS5003;62753;40.394;-80.022;2023-09-19T02:11:49;11;9;
74333;PMS5003;62753;40.394;-80.022;2023-09-19T02:14:14;9;9;
74333;PMS5003;62753;40.394;-80.022;2023-09-19T02:16:39;10;10;
74333;PMS5003;62753;40.394;-80.022;2023-09-19T02:19:04;11;10;
74333;PMS5003;62753;40.394;-80.022;2023-09-19T02:21:30;13;12;
74333;PMS5003;62753;40.394;-80.022;2023-09-19T02:23:56;10;8;
74333;PMS5003;62753;40.394;-80.022;2023-09-19T02:26:21;11;10;
74333;PMS5003;62753;40.394;-80.022;2023-09-19T02:28:47;10;9;
74333;PMS5003;62753;40.394;-80.022;2023-09-19T02:31:12;11;10;
74333;PMS5003;62753;40.394;-80.022;2023-09-19T02:33:38;11;11;
74333;PMS5003;62753;40.394;-80.022;2023-09-19T02:36:03;11;10;
74333;PMS5003;62753;40.394;-80.022;2023-09-19T02:38:28;16;14;
74333;PMS5003;62753;40.394;-80.022;2023-09-19T02:40:53;12;12;
74333;PMS5003;62753;40.394;-80.022;2023-09-19T02:43:19;11;10;
74333;PMS5003;62753;40.394;-80.022;2023-09-19T02:45:44;12;11;
74333;PMS5003;62753;40.394;-80.022;2023-09-19T02:48:15;13;11;
74333;PMS5003;62753;40.394;-80.022;2023-09-19T02:50:34;9;8;
74333;PMS5003;62753;40.394;-80.022;2023-09-19T02:53:00;9;9;
74333;PMS5003;62753;40.394;-80.022;2023-09-19T02:55:25;13;11;
74333;PMS5003;62753;40.394;-80.022;2023-09-19T02:57:51;10;9;
74333;PMS5003;62753;40.394;-80.022;2023-09-19T03:00:16;12;11;
74333;PMS5003;62753;40.394;-80.022;2023-09-19T03:02:41;7;7;
74333;PMS5003;62753;40.394;-80.022;2023-09-19T03:05:07;11;11;
74333;PMS5003;62753;40.394;-80.022;2023-09-19T03:07:32;12;11;
74333;PMS5003;62753;40.394;-80.022;2023-09-19T03:09:57;11;9;
74333;PMS5003;62753;40.394;-80.022;2023-09-19T03:12:23;10;10;
74333;PMS5003;62753;40.394;-80.022;2023-09-19T03:14:48;12;11;
74333;PMS5003;62753;40.394;-80.022;2023-09-19T03:17:13;10;9;
74333;PMS5003;62753;40.394;-80.022;2023-09-19T03:19:39;10;10;
74333;PMS5003;62753;40.394;-80.022;2023-09-19T03:22:04;8;8;
74333;PMS5003;62753;40.394;-80.022;2023-09-19T03:24:29;12;10;
74333;PMS5003;62753;40.394;-80.022;2023-09-19T03:26:54;11;10;
74333;PMS5003;62753;40.394;-80.022;2023-09-19T03:29:19;12;11;
74333;PMS5003;62753;40.394;-80.022;2023-09-19T03:31:44;11;11;
74333;PMS5003;62753;40.394;-80.022;2023-09-19T03:34:10;12;11;
74333;PMS5003;62753;40.394;-80.022;2023-09-19T03:36:36;11;11;
74333;PMS5003;62753;40.394;-80.022;2023-09-19T03:39:01;12;12;
74333;PMS5003;62753;40.394;-80.022;2023-09-19T03:41:26;12;10;
74333;PMS5003;62753;40.394;-80.022;2023-09-19T03:43:52;11;11;
74333;PMS5003;62753;40.394;-80.022;2023-09-19T03:46:17;13;11;
74333;PMS5003;62753;40.394;-80.022;2023-09-19T03:48:43;13;12;
74333;PMS5003;62753;40.394;-80.022;2023-09-19T03:51:08;15;13;
74333;PMS5003;62753;40.394;-80.022;2023-09-19T03:53:34;15;14;
74333;PMS5003;62753;40.394;-80.022;2023-09-19T03:55:59;14;12;
74333;PMS5003;62753;40.394;-80.022;2023-09-19T03:58:24;15;14;
74333;PMS5003;62753;40.394;-80.022;2023-09-19T04:00:50;11;11;
74333;PMS5003;62753;40.394;-80.022;2023-09-19T04:03:15;14;13;
74333;PMS5003;62753;40.394;-80.022;2023-09-19T04:05:40;15;15;
74333;PMS5003;62753;40.394;-80.022;2023-09-19T04:08:05;15;15;
74333;PMS5003;62753;40.394;-80.022;2023-09-19T04:10:31;16;13;
74333;PMS5003;62753;40.394;-80.022;2023-09-19T04:12:56;14;12;
74333;PMS5003;62753;40.394;-80.022;2023-09-19T04:15:22;13;12;
74333;PMS5003;62753;40.394;-80.022;2023-09-19T04:17:46;11;11;
74333;PMS5003;62753;40.394;-80.022;2023-09-19T04:20:12;12;11;
74333;PMS5003;62753;40.394;-80.022;2023-09-19T04:22:37;13;12;
74333;PMS5003;62753;40.394;-80.022;2023-09-19T04:25:03;11;11;
74333;PMS5003;62753;40.394;-80.022;2023-09-19T04:27:29;11;11;
74333;PMS5003;62753;40.394;-80.022;2023-09-19T04:29:54;15;14;
74333;PMS5003;62753;40.394;-80.022;2023-09-19T04:32:19;14;13;
74333;PMS5003;62753;40.394;-80.022;2023-09-19T04:34:45;17;15;
74333;PMS5003;62753;40.394;-80.022;2023-09-19T04:37:11;17;13;
74333;PMS5003;62753;40.394;-80.022;2023-09-19T04:39:35;14;12;
74333;PMS5003;62753;40.394;-80.022;2023-09-19T04:42:01;12;11;
74333;PMS5003;62753;40.394;-80.022;2023-09-19T04:44:26;17;16;
74333;PMS5003;62753;40.394;-80.022;2023-09-19T04:46:51;17;14;
74333;PMS5003;62753;40.394;-80.022;2023-09-19T04:49:17;14;13;
74333;PMS5003;62753;40.394;-80.022;2023-09-19T04:51:42;14;14;
74333;PMS5003;62753;40.394;-80.022;2023-09-19T04:54:07;11;11;
74333;PMS5003;62753;40.394;-80.022;2023-09-19T04:56:33;12;11;
74333;PMS5003;62753;40.394;-80.022;2023-09-19T04:58:58;13;13;
74333;PMS5003;62753;40.394;-80.022;2023-09-19T05:01:24;18;15;
74333;PMS5003;62753;40.394;-80.022;2023-09-19T05:03:49;13;12;
74333;PMS5003;62753;40.394;-80.022;2023-09-19T05:06:15;14;13;
74333;PMS5003;62753;40.394;-80.022;2023-09-19T05:08:40;13;13;
74333;PMS5003;62753;40.394;-80.022;2023-09-19T05:11:06;20;14;
74333;PMS5003;62753;40.394;-80.022;2023-09-19T05:13:31;12;12;
74333;PMS5003;62753;40.394;-80.022;2023-09-19T05:15:59;12;12;
74333;PMS5003;62753;40.394;-80.022;2023-09-19T05:18:21;12;11;
74333;PMS5003;62753;40.394;-80.022;2023-09-19T05:20:47;14;13;
74333;PMS5003;62753;40.394;-80.022;2023-09-19T05:23:12;14;13;
74333;PMS5003;62753;40.394;-80.022;2023-09-19T05:25:37;11;10;
74333;PMS5003;62753;40.394;-80.022;2023-09-19T05:28:03;12;12;
74333;PMS5003;62753;40.394;-80.022;2023-09-19T05:30:28;14;13;
74333;PMS5003;62753;40.394;-80.022;2023-09-19T05:32:53;14;13;
74333;PMS5003;62753;40.394;-80.022;2023-09-19T05:35:18;14;10;
74333;PMS5003;62753;40.394;-80.022;2023-09-19T05:37:44;12;12;
74333;PMS5003;62753;40.394;-80.022;2023-09-19T05:40:09;14;13;
74333;PMS5003;62753;40.394;-80.022;2023-09-19T05:42:35;13;11;
74333;PMS5003;62753;40.394;-80.022;2023-09-19T05:45:01;17;14;
74333;PMS5003;62753;40.394;-80.022;2023-09-19T05:47:26;13;12;
74333;PMS5003;62753;40.394;-80.022;2023-09-19T05:49:51;12;11;
74333;PMS5003;62753;40.394;-80.022;2023-09-19T05:52:17;12;11;
74333;PMS5003;62753;40.394;-80.022;2023-09-19T05:54:42;13;12;
74333;PMS5003;62753;40.394;-80.022;2023-09-19T05:57:06;16;14;
74333;PMS5003;62753;40.394;-80.022;2023-09-19T05:59:32;11;11;
74333;PMS5003;62753;40.394;-80.022;2023-09-19T06:01:58;16;13;
74333;PMS5003;62753;40.394;-80.022;2023-09-19T06:04:24;14;13;
74333;PMS5003;62753;40.394;-80.022;2023-09-19T06:06:49;14;11;
74333;PMS5003;62753;40.394;-80.022;2023-09-19T06:09:14;12;12;
74333;PMS5003;62753;40.394;-80.022;2023-09-19T06:11:41;14;13;
74333;PMS5003;62753;40.394;-80.022;2023-09-19T06:14:06;14;13;
74333;PMS5003;62753;40.394;-80.022;2023-09-19T06:16:31;13;13;
74333;PMS5003;62753;40.394;-80.022;2023-09-19T06:18:56;13;12;
74333;PMS5003;62753;40.394;-80.022;2023-09-19T06:21:21;16;13;
74333;PMS5003;62753;40.394;-80.022;2023-09-19T06:23:47;16;14;
74333;PMS5003;62753;40.394;-80.022;2023-09-19T06:26:12;12;11;
74333;PMS5003;62753;40.394;-80.022;2023-09-19T06:28:37;12;11;
74333;PMS5003;62753;40.394;-80.022;2023-09-19T06:31:02;13;12;
74333;PMS5003;62753;40.394;-80.022;2023-09-19T06:33:27;12;12;
74333;PMS5003;62753;40.394;-80.022;2023-09-19T06:35:53;20;15;
74333;PMS5003;62753;40.394;-80.022;2023-09-19T06:38:19;16;15;
74333;PMS5003;62753;40.394;-80.022;2023-09-19T06:40:44;15;14;
74333;PMS5003;62753;40.394;-80.022;2023-09-19T06:43:14;17;15;
74333;PMS5003;62753;40.394;-80.022;2023-09-19T06:45:35;17;12;
74333;PMS5003;62753;40.394;-80.022;2023-09-19T06:48:01;15;14;
74333;PMS5003;62753;40.394;-80.022;2023-09-19T06:50:26;10;10;
74333;PMS5003;62753;40.394;-80.022;2023-09-19T06:52:51;10;10;
74333;PMS5003;62753;40.394;-80.022;2023-09-19T06:55:16;13;11;
74333;PMS5003;62753;40.394;-80.022;2023-09-19T06:57:41;14;14;
74333;PMS5003;62753;40.394;-80.022;2023-09-19T07:00:08;18;13;
74333;PMS5003;62753;40.394;-80.022;2023-09-19T07:02:32;13;12;
74333;PMS5003;62753;40.394;-80.022;2023-09-19T07:04:58;15;13;
74333;PMS5003;62753;40.394;-80.022;2023-09-19T07:07:23;13;13;
74333;PMS5003;62753;40.394;-80.022;2023-09-19T07:09:49;15;12;
74333;PMS5003;62753;40.394;-80.022;2023-09-19T07:12:14;14;14;
74333;PMS5003;62753;40.394;-80.022;2023-09-19T07:14:39;14;13;
74333;PMS5003;62753;40.394;-80.022;2023-09-19T07:17:05;13;12;
74333;PMS5003;62753;40.394;-80.022;2023-09-19T07:19:30;12;12;
74333;PMS5003;62753;40.394;-80.022;2023-09-19T07:21:56;16;15;
74333;PMS5003;62753;40.394;-80.022;2023-09-19T07:24:21;10;10;
74333;PMS5003;62753;40.394;-80.022;2023-09-19T07:26:47;18;14;
74333;PMS5003;62753;40.394;-80.022;2023-09-19T07:29:13;13;12;
74333;PMS5003;62753;40.394;-80.022;2023-09-19T07:31:38;14;14;
74333;PMS5003;62753;40.394;-80.022;2023-09-19T07:34:03;13;12;
74333;PMS5003;62753;40.394;-80.022;2023-09-19T07:36:29;14;13;
74333;PMS5003;62753;40.394;-80.022;2023-09-19T07:38:54;14;13;
74333;PMS5003;62753;40.394;-80.022;2023-09-19T07:41:20;15;13;
74333;PMS5003;62753;40.394;-80.022;2023-09-19T07:43:45;14;14;
74333;PMS5003;62753;40.394;-80.022;2023-09-19T07:46:10;17;14;
74333;PMS5003;62753;40.394;-80.022;2023-09-19T07:48:35;20;16;
74333;PMS5003;62753;40.394;-80.022;2023-09-19T07:51:02;14;14;
74333;PMS5003;62753;40.394;-80.022;2023-09-19T07:53:26;14;13;
74333;PMS5003;62753;40.394;-80.022;2023-09-19T07:55:51;12;11;
74333;PMS5003;62753;40.394;-80.022;2023-09-19T07:58:17;20;16;
74333;PMS5003;62753;40.394;-80.022;2023-09-19T08:00:42;15;14;
74333;PMS5003;62753;40.394;-80.022;2023-09-19T08:03:07;14;13;
74333;PMS5003;62753;40.394;-80.022;2023-09-19T08:05:33;16;16;
74333;PMS5003;62753;40.394;-80.022;2023-09-19T08:07:58;17;16;
74333;PMS5003;62753;40.394;-80.022;2023-09-19T08:10:24;17;13;
74333;PMS5003;62753;40.394;-80.022;2023-09-19T08:12:50;16;14;
74333;PMS5003;62753;40.394;-80.022;2023-09-19T08:15:15;17;13;
74333;PMS5003;62753;40.394;-80.022;2023-09-19T08:17:41;17;15;
74333;PMS5003;62753;40.394;-80.022;2023-09-19T08:20:07;16;15;
74333;PMS5003;62753;40.394;-80.022;2023-09-19T08:22:32;14;14;
74333;PMS5003;62753;40.394;-80.022;2023-09-19T08:24:57;16;14;
74333;PMS5003;62753;40.394;-80.022;2023-09-19T08:27:23;15;15;
74333;PMS5003;62753;40.394;-80.022;2023-09-19T08:29:48;16;14;
74333;PMS5003;62753;40.394;-80.022;2023-09-19T08:32:13;18;16;
74333;PMS5003;62753;40.394;-80.022;2023-09-19T08:34:38;14;13;
74333;PMS5003;62753;40.394;-80.022;2023-09-19T08:37:04;15;14;
74333;PMS5003;62753;40.394;-80.022;2023-09-19T08:39:29;19;14;
74333;PMS5003;62753;40.394;-80.022;2023-09-19T08:41:57;15;13;
74333;PMS5003;62753;40.394;-80.022;2023-09-19T08:44:19;14;14;
74333;PMS5003;62753;40.394;-80.022;2023-09-19T08:46:44;14;14;
74333;PMS5003;62753;40.394;-80.022;2023-09-19T08:49:12;12;12;
74333;PMS5003;62753;40.394;-80.022;2023-09-19T08:51:40;16;15;
74333;PMS5003;62753;40.394;-80.022;2023-09-19T08:54:03;13;12;
74333;PMS5003;62753;40.394;-80.022;2023-09-19T08:56:25;15;13;
74333;PMS5003;62753;40.394;-80.022;2023-09-19T08:58:51;15;14;
74333;PMS5003;62753;40.394;-80.022;2023-09-19T09:01:16;15;14;
74333;PMS5003;62753;40.394;-80.022;2023-09-19T09:03:41;16;14;
74333;PMS5003;62753;40.394;-80.022;2023-09-19T09:06:07;18;17;
74333;PMS5003;62753;40.394;-80.022;2023-09-19T09:08:31;15;14;
74333;PMS5003;62753;40.394;-80.022;2023-09-19T09:10:57;22;18;
74333;PMS5003;62753;40.394;-80.022;2023-09-19T09:13:22;17;17;
74333;PMS5003;62753;40.394;-80.022;2023-09-19T09:15:47;16;15;
74333;PMS5003;62753;40.394;-80.022;2023-09-19T09:18:13;15;14;
74333;PMS5003;62753;40.394;-80.022;2023-09-19T09:20:38;16;14;
74333;PMS5003;62753;40.394;-80.022;2023-09-19T09:23:03;19;17;
74333;PMS5003;62753;40.394;-80.022;2023-09-19T09:27:59;16;15;
74333;PMS5003;62753;40.394;-80.022;2023-09-19T09:32:45;19;16;
74333;PMS5003;62753;40.394;-80.022;2023-09-19T09:35:10;16;15;
74333;PMS5003;62753;40.394;-80.022;2023-09-19T09:37:35;13;13;
74333;PMS5003;62753;40.394;-80.022;2023-09-19T09:40:01;16;14;
74333;PMS5003;62753;40.394;-80.022;2023-09-19T09:42:28;14;14;
74333;PMS5003;62753;40.394;-80.022;2023-09-19T09:44:53;15;14;
74333;PMS5003;62753;40.394;-80.022;2023-09-19T09:47:17;13;13;
74333;PMS5003;62753;40.394;-80.022;2023-09-19T09:49:42;17;15;
74333;PMS5003;62753;40.394;-80.022;2023-09-19T09:52:07;16;14;
74333;PMS5003;62753;40.394;-80.022;2023-09-19T09:54:33;15;13;
74333;PMS5003;62753;40.394;-80.022;2023-09-19T09:56:59;17;14;
74333;PMS5003;62753;40.394;-80.022;2023-09-19T10:01:49;14;14;
74333;PMS5003;62753;40.394;-80.022;2023-09-19T10:04:15;15;14;
74333;PMS5003;62753;40.394;-80.022;2023-09-19T10:06:40;18;15;
74333;PMS5003;62753;40.394;-80.022;2023-09-19T10:09:06;16;15;
74333;PMS5003;62753;40.394;-80.022;2023-09-19T10:11:30;14;14;
74333;PMS5003;62753;40.394;-80.022;2023-09-19T10:13:56;13;12;
74333;PMS5003;62753;40.394;-80.022;2023-09-19T10:16:21;14;13;
74333;PMS5003;62753;40.394;-80.022;2023-09-19T10:18:47;17;16;
74333;PMS5003;62753;40.394;-80.022;2023-09-19T10:21:12;14;14;
74333;PMS5003;62753;40.394;-80.022;2023-09-19T10:23:38;15;15;
74333;PMS5003;62753;40.394;-80.022;2023-09-19T10:26:03;15;14;
74333;PMS5003;62753;40.394;-80.022;2023-09-19T10:28:28;12;12;
74333;PMS5003;62753;40.394;-80.022;2023-09-19T10:30:54;19;18;
74333;PMS5003;62753;40.394;-80.022;2023-09-19T10:33:19;16;16;
74333;PMS5003;62753;40.394;-80.022;2023-09-19T10:35:45;16;16;
74333;PMS5003;62753;40.394;-80.022;2023-09-19T10:38:10;15;13;
74333;PMS5003;62753;40.394;-80.022;2023-09-19T10:40:36;13;13;
74333;PMS5003;62753;40.394;-80.022;2023-09-19T10:43:02;17;12;
74333;PMS5003;62753;40.394;-80.022;2023-09-19T10:45:27;16;16;
74333;PMS5003;62753;40.394;-80.022;2023-09-19T10:47:52;14;14;
74333;PMS5003;62753;40.394;-80.022;2023-09-19T10:50:19;15;14;
74333;PMS5003;62753;40.394;-80.022;2023-09-19T10:52:42;19;17;
74333;PMS5003;62753;40.394;-80.022;2023-09-19T10:55:08;14;13;
74333;PMS5003;62753;40.394;-80.022;2023-09-19T10:57:33;20;17;
74333;PMS5003;62753;40.394;-80.022;2023-09-19T11:00:03;20;18;
74333;PMS5003;62753;40.394;-80.022;2023-09-19T11:02:25;19;17;
74333;PMS5003;62753;40.394;-80.022;2023-09-19T11:04:50;13;13;
74333;PMS5003;62753;40.394;-80.022;2023-09-19T11:07:15;19;18;
74333;PMS5003;62753;40.394;-80.022;2023-09-19T11:09:44;17;15;
74333;PMS5003;62753;40.394;-80.022;2023-09-19T11:12:05;20;16;
74333;PMS5003;62753;40.394;-80.022;2023-09-19T11:14:38;16;14;
74333;PMS5003;62753;40.394;-80.022;2023-09-19T11:19:22;16;15;
74333;PMS5003;62753;40.394;-80.022;2023-09-19T11:21:52;14;13;
74333;PMS5003;62753;40.394;-80.022;2023-09-19T11:26:40;20;18;
74333;PMS5003;62753;40.394;-80.022;2023-09-19T11:36:28;24;18;
74333;PMS5003;62753;40.394;-80.022;2023-09-19T11:43:37;18;16;
74333;PMS5003;62753;40.394;-80.022;2023-09-19T11:46:04;22;16;
74333;PMS5003;62753;40.394;-80.022;2023-09-19T11:48:27;22;15;
74333;PMS5003;62753;40.394;-80.022;2023-09-19T11:50:52;18;16;
74333;PMS5003;62753;40.394;-80.022;2023-09-19T11:53:18;15;15;
74333;PMS5003;62753;40.394;-80.022;2023-09-19T11:55:44;19;18;
74333;PMS5003;62753;40.394;-80.022;2023-09-19T11:58:09;18;15;
74333;PMS5003;62753;40.394;-80.022;2023-09-19T12:00:35;17;17;
74333;PMS5003;62753;40.394;-80.022;2023-09-19T12:03:02;17;15;
74333;PMS5003;62753;40.394;-80.022;2023-09-19T12:05:28;17;16;
74333;PMS5003;62753;40.394;-80.022;2023-09-19T12:07:51;19;16;
74333;PMS5003;62753;40.394;-80.022;2023-09-19T12:10:17;25;19;
74333;PMS5003;62753;40.394;-80.022;2023-09-19T12:12:46;21;16;
74333;PMS5003;62753;40.394;-80.022;2023-09-19T12:15:08;14;13;
74333;PMS5003;62753;40.394;-80.022;2023-09-19T12:17:35;17;15;
74333;PMS5003;62753;40.394;-80.022;2023-09-19T12:20:00;14;13;
74333;PMS5003;62753;40.394;-80.022;2023-09-19T12:22:25;22;17;
74333;PMS5003;62753;40.394;-80.022;2023-09-19T12:24:50;16;15;
74333;PMS5003;62753;40.394;-80.022;2023-09-19T12:27:16;20;18;
74333;PMS5003;62753;40.394;-80.022;2023-09-19T12:29:42;15;14;
74333;PMS5003;62753;40.394;-80.022;2023-09-19T12:32:07;20;17;
74333;PMS5003;62753;40.394;-80.022;2023-09-19T12:34:32;14;12;
74333;PMS5003;62753;40.394;-80.022;2023-09-19T12:37:04;13;13;
74333;PMS5003;62753;40.394;-80.022;2023-09-19T12:39:23;17;15;
74333;PMS5003;62753;40.394;-80.022;2023-09-19T12:41:48;16;15;
74333;PMS5003;62753;40.394;-80.022;2023-09-19T12:44:13;19;15;
74333;PMS5003;62753;40.394;-80.022;2023-09-19T12:46:39;14;12;
74333;PMS5003;62753;40.394;-80.022;2023-09-19T12:51:34;12;12;
74333;PMS5003;62753;40.394;-80.022;2023-09-19T12:53:57;15;14;
74333;PMS5003;62753;40.394;-80.022;2023-09-19T12:56:21;15;15;
74333;PMS5003;62753;40.394;-80.022;2023-09-19T12:58:50;13;12;
74333;PMS5003;62753;40.394;-80.022;2023-09-19T13:01:14;13;12;
74333;PMS5003;62753;40.394;-80.022;2023-09-19T13:03:37;12;12;
74333;PMS5003;62753;40.394;-80.022;2023-09-19T13:06:03;19;14;
74333;PMS5003;62753;40.394;-80.022;2023-09-19T13:08:28;13;13;
74333;PMS5003;62753;40.394;-80.022;2023-09-19T13:11:01;14;12;
74333;PMS5003;62753;40.394;-80.022;2023-09-19T13:13:23;20;14;
74333;PMS5003;62753;40.394;-80.022;2023-09-19T13:18:11;13;12;
74333;PMS5003;62753;40.394;-80.022;2023-09-19T13:20:34;15;12;
74333;PMS5003;62753;40.394;-80.022;2023-09-19T13:22:59;12;11;
74333;PMS5003;62753;40.394;-80.022;2023-09-19T13:25:25;16;15;
74333;PMS5003;62753;40.394;-80.022;2023-09-19T13:27:50;12;12;
74333;PMS5003;62753;40.394;-80.022;2023-09-19T13:30:15;15;14;
74333;PMS5003;62753;40.394;-80.022;2023-09-19T13:32:41;13;12;
74333;PMS5003;62753;40.394;-80.022;2023-09-19T13:35:07;12;12;
74333;PMS5003;62753;40.394;-80.022;2023-09-19T13:37:33;12;12;
74333;PMS5003;62753;40.394;-80.022;2023-09-19T13:39:58;9;8;
74333;PMS5003;62753;40.394;-80.022;2023-09-19T13:42:23;10;9;
74333;PMS5003;62753;40.394;-80.022;2023-09-19T13:44:49;10;10;
74333;PMS5003;62753;40.394;-80.022;2023-09-19T13:47:14;8;8;
74333;PMS5003;62753;40.394;-80.022;2023-09-19T13:49:40;10;9;
74333;PMS5003;62753;40.394;-80.022;2023-09-19T13:52:05;12;11;
74333;PMS5003;62753;40.394;-80.022;2023-09-19T13:54:30;11;8;
74333;PMS5003;62753;40.394;-80.022;2023-09-19T13:56:56;11;10;
74333;PMS5003;62753;40.394;-80.022;2023-09-19T13:59:21;11;10;
74333;PMS5003;62753;40.394;-80.022;2023-09-19T14:01:46;8;8;
74333;PMS5003;62753;40.394;-80.022;2023-09-19T14:04:12;8;8;
74333;PMS5003;62753;40.394;-80.022;2023-09-19T14:06:37;10;9;
74333;PMS5003;62753;40.394;-80.022;2023-09-19T14:09:03;8;7;
74333;PMS5003;62753;40.394;-80.022;2023-09-19T14:11:27;8;8;
74333;PMS5003;62753;40.394;-80.022;2023-09-19T14:13:52;10;10;
74333;PMS5003;62753;40.394;-80.022;2023-09-19T14:16:18;8;7;
74333;PMS5003;62753;40.394;-80.022;2023-09-19T14:18:44;11;10;
74333;PMS5003;62753;40.394;-80.022;2023-09-19T14:21:08;9;8;
74333;PMS5003;62753;40.394;-80.022;2023-09-19T14:23:35;8;7;
74333;PMS5003;62753;40.394;-80.022;2023-09-19T14:26:00;12;10;
74333;PMS5003;62753;40.394;-80.022;2023-09-19T14:28:24;8;8;
74333;PMS5003;62753;40.394;-80.022;2023-09-19T14:30:50;9;8;
74333;PMS5003;62753;40.394;-80.022;2023-09-19T14:33:15;11;10;
74333;PMS5003;62753;40.394;-80.022;2023-09-19T14:35:41;8;8;
74333;PMS5003;62753;40.394;-80.022;2023-09-19T14:38:06;7;7;
74333;PMS5003;62753;40.394;-80.022;2023-09-19T14:40:31;7;7;
74333;PMS5003;62753;40.394;-80.022;2023-09-19T14:42:56;11;10;
74333;PMS5003;62753;40.394;-80.022;2023-09-19T14:45:22;6;5;
74333;PMS5003;62753;40.394;-80.022;2023-09-19T14:47:48;7;7;
74333;PMS5003;62753;40.394;-80.022;2023-09-19T14:50:12;6;6;
74333;PMS5003;62753;40.394;-80.022;2023-09-19T14:52:37;9;8;
74333;PMS5003;62753;40.394;-80.022;2023-09-19T14:55:03;7;7;
74333;PMS5003;62753;40.394;-80.022;2023-09-19T14:57:28;7;6;
74333;PMS5003;62753;40.394;-80.022;2023-09-19T14:59:53;9;9;
74333;PMS5003;62753;40.394;-80.022;2023-09-19T15:02:18;7;7;
74333;PMS5003;62753;40.394;-80.022;2023-09-19T15:04:43;9;7;
74333;PMS5003;62753;40.394;-80.022;2023-09-19T15:07:09;6;6;
74333;PMS5003;62753;40.394;-80.022;2023-09-19T15:09:34;7;7;
74333;PMS5003;62753;40.394;-80.022;2023-09-19T15:11:59;5;5;
74333;PMS5003;62753;40.394;-80.022;2023-09-19T15:14:24;4;4;
74333;PMS5003;62753;40.394;-80.022;2023-09-19T15:16:49;7;7;
74333;PMS5003;62753;40.394;-80.022;2023-09-19T15:19:15;7;7;
74333;PMS5003;62753;40.394;-80.022;2023-09-19T15:21:40;8;7;
74333;PMS5003;62753;40.394;-80.022;2023-09-19T15:24:05;6;6;
74333;PMS5003;62753;40.394;-80.022;2023-09-19T15:26:30;8;6;
74333;PMS5003;62753;40.394;-80.022;2023-09-19T15:28:55;8;7;
74333;PMS5003;62753;40.394;-80.022;2023-09-19T15:31:20;7;6;
74333;PMS5003;62753;40.394;-80.022;2023-09-19T15:33:46;8;8;
74333;PMS5003;62753;40.394;-80.022;2023-09-19T15:36:11;6;6;
74333;PMS5003;62753;40.394;-80.022;2023-09-19T15:41:01;6;6;
74333;PMS5003;62753;40.394;-80.022;2023-09-19T15:43:26;6;5;
74333;PMS5003;62753;40.394;-80.022;2023-09-19T15:45:52;7;5;
74333;PMS5003;62753;40.394;-80.022;2023-09-19T15:48:17;5;5;
74333;PMS5003;62753;40.394;-80.022;2023-09-19T15:50:42;6;6;
74333;PMS5003;62753;40.394;-80.022;2023-09-19T15:53:07;5;5;
74333;PMS5003;62753;40.394;-80.022;2023-09-19T15:55:34;6;6;
74333;PMS5003;62753;40.394;-80.022;2023-09-19T15:57:57;5;5;
74333;PMS5003;62753;40.394;-80.022;2023-09-19T16:00:23;5;5;
74333;PMS5003;62753;40.394;-80.022;2023-09-19T16:02:48;5;5;
74333;PMS5003;62753;40.394;-80.022;2023-09-19T16:05:13;6;5;
74333;PMS5003;62753;40.394;-80.022;2023-09-19T16:07:38;6;5;
74333;PMS5003;62753;40.394;-80.022;2023-09-19T16:10:04;3;3;
74333;PMS5003;62753;40.394;-80.022;2023-09-19T16:12:29;8;7;
74333;PMS5003;62753;40.394;-80.022;2023-09-19T16:14:55;6;6;
74333;PMS5003;62753;40.394;-80.022;2023-09-19T16:17:19;6;6;